sensor_id;sensor_type;location;lat;lon;timestamp;temperature;humidity
52125;DHT22;38119;52.710;6.398;2023-03-13T00:02:08;8.90;99.90
52125;DHT22;38119;52.710;6.398;2023-03-13T00:04:33;9.00;99.90
52125;DHT22;38119;52.710;6.398;2023-03-13T00:06:59;9.00;99.90
52125;DHT22;38119;52.710;6.398;2023-03-13T00:09:25;8.90;99.90
52125;DHT22;38119;52.710;6.398;2023-03-13T00:11:51;8.90;99.90
52125;DHT22;38119;52.710;6.398;2023-03-13T00:14:18;8.90;99.90
52125;DHT22;38119;52.710;6.398;2023-03-13T00:16:43;8.90;99.90
52125;DHT22;38119;52.710;6.398;2023-03-13T00:19:09;8.90;99.90
52125;DHT22;38119;52.710;6.398;2023-03-13T00:21:35;8.90;99.90
52125;DHT22;38119;52.710;6.398;2023-03-13T00:24:05;8.90;99.90
52125;DHT22;38119;52.710;6.398;2023-03-13T00:26:31;8.90;99.90
52125;DHT22;38119;52.710;6.398;2023-03-13T00:28:57;8.90;99.90
52125;DHT22;38119;52.710;6.398;2023-03-13T00:31:25;8.90;99.90
52125;DHT22;38119;52.710;6.398;2023-03-13T00:33:53;8.90;99.90
52125;DHT22;38119;52.710;6.398;2023-03-13T00:36:23;8.90;99.90
52125;DHT22;38119;52.710;6.398;2023-03-13T00:38:50;8.90;99.90
52125;DHT22;38119;52.710;6.398;2023-03-13T00:41:21;8.90;99.90
52125;DHT22;38119;52.710;6.398;2023-03-13T00:43:48;8.90;99.90
52125;DHT22;38119;52.710;6.398;2023-03-13T00:46:19;8.80;99.90
52125;DHT22;38119;52.710;6.398;2023-03-13T00:48:45;8.80;99.90
52125;DHT22;38119;52.710;6.398;2023-03-13T00:51:12;8.90;99.90
52125;DHT22;38119;52.710;6.398;2023-03-13T00:53:38;8.90;99.90
52125;DHT22;38119;52.710;6.398;2023-03-13T00:56:07;8.80;99.90
52125;DHT22;38119;52.710;6.398;2023-03-13T00:58:35;8.80;99.90
52125;DHT22;38119;52.710;6.398;2023-03-13T01:03:36;8.80;99.90
52125;DHT22;38119;52.710;6.398;2023-03-13T01:06:04;8.80;99.90
52125;DHT22;38119;52.710;6.398;2023-03-13T01:08:30;8.80;99.90
52125;DHT22;38119;52.710;6.398;2023-03-13T01:11:18;8.80;99.90
52125;DHT22;38119;52.710;6.398;2023-03-13T01:13:43;8.80;99.90
52125;DHT22;38119;52.710;6.398;2023-03-13T01:16:17;8.80;99.90
52125;DHT22;38119;52.710;6.398;2023-03-13T01:18:45;8.80;99.90
52125;DHT22;38119;52.710;6.398;2023-03-13T01:21:11;8.80;99.90
52125;DHT22;38119;52.710;6.398;2023-03-13T01:23:37;8.80;99.90
52125;DHT22;38119;52.710;6.398;2023-03-13T01:26:07;8.80;99.90
52125;DHT22;38119;52.710;6.398;2023-03-13T01:28:34;8.80;99.90
52125;DHT22;38119;52.710;6.398;2023-03-13T01:31:00;8.80;99.90
52125;DHT22;38119;52.710;6.398;2023-03-13T01:33:34;8.80;99.90
52125;DHT22;38119;52.710;6.398;2023-03-13T01:36:03;8.80;99.90
52125;DHT22;38119;52.710;6.398;2023-03-13T01:38:29;8.80;99.90
52125;DHT22;38119;52.710;6.398;2023-03-13T01:40:54;8.80;99.90
52125;DHT22;38119;52.710;6.398;2023-03-13T01:43:25;8.80;99.90
52125;DHT22;38119;52.710;6.398;2023-03-13T01:48:41;8.90;99.90
52125;DHT22;38119;52.710;6.398;2023-03-13T01:51:12;8.80;99.90
52125;DHT22;38119;52.710;6.398;2023-03-13T01:53:41;8.90;99.90
52125;DHT22;38119;52.710;6.398;2023-03-13T01:56:12;8.80;99.90
52125;DHT22;38119;52.710;6.398;2023-03-13T01:58:40;8.90;99.90
52125;DHT22;38119;52.710;6.398;2023-03-13T02:01:05;8.80;99.90
52125;DHT22;38119;52.710;6.398;2023-03-13T02:03:32;8.80;99.90
52125;DHT22;38119;52.710;6.398;2023-03-13T02:05:59;8.80;99.90
52125;DHT22;38119;52.710;6.398;2023-03-13T02:08:37;8.80;99.90
52125;DHT22;38119;52.710;6.398;2023-03-13T02:13:54;8.80;99.90
52125;DHT22;38119;52.710;6.398;2023-03-13T02:16:21;8.80;99.90
52125;DHT22;38119;52.710;6.398;2023-03-13T02:18:47;8.80;99.90
52125;DHT22;38119;52.710;6.398;2023-03-13T02:21:44;8.80;99.90
52125;DHT22;38119;52.710;6.398;2023-03-13T02:27:21;8.80;99.90
52125;DHT22;38119;52.710;6.398;2023-03-13T02:29:46;8.80;99.90
52125;DHT22;38119;52.710;6.398;2023-03-13T02:32:13;8.80;99.90
52125;DHT22;38119;52.710;6.398;2023-03-13T02:34:40;8.80;99.90
52125;DHT22;38119;52.710;6.398;2023-03-13T02:37:08;8.90;99.90
52125;DHT22;38119;52.710;6.398;2023-03-13T02:39:39;8.90;99.90
52125;DHT22;38119;52.710;6.398;2023-03-13T02:42:06;8.90;99.90
52125;DHT22;38119;52.710;6.398;2023-03-13T02:44:39;8.90;99.90
52125;DHT22;38119;52.710;6.398;2023-03-13T02:47:05;8.90;99.90
52125;DHT22;38119;52.710;6.398;2023-03-13T02:49:30;9.00;99.90
52125;DHT22;38119;52.710;6.398;2023-03-13T02:52:08;9.00;99.90
52125;DHT22;38119;52.710;6.398;2023-03-13T02:54:36;9.00;99.90
52125;DHT22;38119;52.710;6.398;2023-03-13T02:57:03;9.00;99.90
52125;DHT22;38119;52.710;6.398;2023-03-13T02:59:29;8.90;99.90
52125;DHT22;38119;52.710;6.398;2023-03-13T03:01:55;9.10;99.90
52125;DHT22;38119;52.710;6.398;2023-03-13T03:04:22;9.20;99.90
52125;DHT22;38119;52.710;6.398;2023-03-13T03:06:48;9.20;99.90
52125;DHT22;38119;52.710;6.398;2023-03-13T03:09:14;9.20;99.90
52125;DHT22;38119;52.710;6.398;2023-03-13T03:11:40;9.20;99.90
52125;DHT22;38119;52.710;6.398;2023-03-13T03:14:06;9.30;99.90
52125;DHT22;38119;52.710;6.398;2023-03-13T03:16:32;9.30;99.90
52125;DHT22;38119;52.710;6.398;2023-03-13T03:18:57;9.30;99.90
52125;DHT22;38119;52.710;6.398;2023-03-13T03:21:23;9.30;99.90
52125;DHT22;38119;52.710;6.398;2023-03-13T03:23:49;9.40;99.90
52125;DHT22;38119;52.710;6.398;2023-03-13T03:26:15;9.40;99.90
52125;DHT22;38119;52.710;6.398;2023-03-13T03:28:40;9.40;99.90
52125;DHT22;38119;52.710;6.398;2023-03-13T03:31:08;9.50;99.90
52125;DHT22;38119;52.710;6.398;2023-03-13T03:33:34;9.50;99.90
52125;DHT22;38119;52.710;6.398;2023-03-13T03:36:12;9.50;99.90
52125;DHT22;38119;52.710;6.398;2023-03-13T03:38:38;9.60;99.90
52125;DHT22;38119;52.710;6.398;2023-03-13T03:43:32;9.60;99.90
52125;DHT22;38119;52.710;6.398;2023-03-13T03:45:58;9.70;99.90
52125;DHT22;38119;52.710;6.398;2023-03-13T03:48:24;9.70;99.90
52125;DHT22;38119;52.710;6.398;2023-03-13T03:50:49;9.70;99.90
52125;DHT22;38119;52.710;6.398;2023-03-13T03:53:15;9.80;99.90
52125;DHT22;38119;52.710;6.398;2023-03-13T03:55:41;9.90;99.90
52125;DHT22;38119;52.710;6.398;2023-03-13T03:58:06;9.90;99.90
52125;DHT22;38119;52.710;6.398;2023-03-13T04:00:32;9.90;99.90
52125;DHT22;38119;52.710;6.398;2023-03-13T04:02:58;9.90;99.90
52125;DHT22;38119;52.710;6.398;2023-03-13T04:05:23;10.00;99.90
52125;DHT22;38119;52.710;6.398;2023-03-13T04:07:49;10.00;99.90
52125;DHT22;38119;52.710;6.398;2023-03-13T04:10:15;10.10;99.90
52125;DHT22;38119;52.710;6.398;2023-03-13T04:12:41;10.10;99.90
52125;DHT22;38119;52.710;6.398;2023-03-13T04:15:07;10.10;99.90
52125;DHT22;38119;52.710;6.398;2023-03-13T04:17:33;10.20;99.90
52125;DHT22;38119;52.710;6.398;2023-03-13T04:19:59;10.10;99.90
52125;DHT22;38119;52.710;6.398;2023-03-13T04:22:25;10.20;99.90
52125;DHT22;38119;52.710;6.398;2023-03-13T04:24:51;10.20;99.90
52125;DHT22;38119;52.710;6.398;2023-03-13T04:27:17;10.20;99.90
52125;DHT22;38119;52.710;6.398;2023-03-13T04:29:43;10.30;99.90
52125;DHT22;38119;52.710;6.398;2023-03-13T04:32:08;10.30;99.90
52125;DHT22;38119;52.710;6.398;2023-03-13T04:34:34;10.40;99.90
52125;DHT22;38119;52.710;6.398;2023-03-13T04:37:00;10.40;99.90
52125;DHT22;38119;52.710;6.398;2023-03-13T04:39:25;10.40;99.90
52125;DHT22;38119;52.710;6.398;2023-03-13T04:41:52;10.40;99.90
52125;DHT22;38119;52.710;6.398;2023-03-13T04:44:18;10.50;99.90
52125;DHT22;38119;52.710;6.398;2023-03-13T04:46:43;10.60;99.90
52125;DHT22;38119;52.710;6.398;2023-03-13T04:49:09;10.60;99.90
52125;DHT22;38119;52.710;6.398;2023-03-13T04:51:35;10.60;99.90
52125;DHT22;38119;52.710;6.398;2023-03-13T04:54:00;10.70;99.90
52125;DHT22;38119;52.710;6.398;2023-03-13T04:56:26;10.80;99.90
52125;DHT22;38119;52.710;6.398;2023-03-13T04:58:52;10.80;99.90
52125;DHT22;38119;52.710;6.398;2023-03-13T05:01:18;10.90;99.90
52125;DHT22;38119;52.710;6.398;2023-03-13T05:03:44;10.90;99.90
52125;DHT22;38119;52.710;6.398;2023-03-13T05:06:10;11.00;99.90
52125;DHT22;38119;52.710;6.398;2023-03-13T05:08:36;11.00;99.90
52125;DHT22;38119;52.710;6.398;2023-03-13T05:11:02;11.00;99.90
52125;DHT22;38119;52.710;6.398;2023-03-13T05:13:27;11.10;99.90
52125;DHT22;38119;52.710;6.398;2023-03-13T05:15:53;11.10;99.90
52125;DHT22;38119;52.710;6.398;2023-03-13T05:18:19;11.10;99.90
52125;DHT22;38119;52.710;6.398;2023-03-13T05:20:44;11.10;99.90
52125;DHT22;38119;52.710;6.398;2023-03-13T05:23:10;11.20;99.90
52125;DHT22;38119;52.710;6.398;2023-03-13T05:25:35;11.20;99.90
52125;DHT22;38119;52.710;6.398;2023-03-13T05:28:01;11.20;99.90
52125;DHT22;38119;52.710;6.398;2023-03-13T05:30:27;11.20;99.90
52125;DHT22;38119;52.710;6.398;2023-03-13T05:32:53;11.20;99.90
52125;DHT22;38119;52.710;6.398;2023-03-13T05:35:18;11.00;99.90
52125;DHT22;38119;52.710;6.398;2023-03-13T05:37:44;11.30;99.90
52125;DHT22;38119;52.710;6.398;2023-03-13T05:40:13;11.40;99.90
52125;DHT22;38119;52.710;6.398;2023-03-13T05:42:39;11.40;99.90
52125;DHT22;38119;52.710;6.398;2023-03-13T05:45:05;11.40;99.90
52125;DHT22;38119;52.710;6.398;2023-03-13T05:47:30;11.50;99.90
52125;DHT22;38119;52.710;6.398;2023-03-13T05:49:56;11.50;99.90
52125;DHT22;38119;52.710;6.398;2023-03-13T05:52:22;11.50;99.90
52125;DHT22;38119;52.710;6.398;2023-03-13T05:54:48;11.50;99.90
52125;DHT22;38119;52.710;6.398;2023-03-13T05:57:13;11.60;99.90
52125;DHT22;38119;52.710;6.398;2023-03-13T05:59:39;11.60;99.90
52125;DHT22;38119;52.710;6.398;2023-03-13T06:02:04;11.60;99.90
52125;DHT22;38119;52.710;6.398;2023-03-13T06:04:30;11.60;99.90
52125;DHT22;38119;52.710;6.398;2023-03-13T06:06:55;11.70;99.90
52125;DHT22;38119;52.710;6.398;2023-03-13T06:09:21;11.70;99.90
52125;DHT22;38119;52.710;6.398;2023-03-13T06:11:47;11.70;99.90
52125;DHT22;38119;52.710;6.398;2023-03-13T06:14:12;11.80;99.90
52125;DHT22;38119;52.710;6.398;2023-03-13T06:16:38;11.80;99.90
52125;DHT22;38119;52.710;6.398;2023-03-13T06:19:03;11.80;99.90
52125;DHT22;38119;52.710;6.398;2023-03-13T06:21:29;11.90;99.90
52125;DHT22;38119;52.710;6.398;2023-03-13T06:23:55;11.90;99.90
52125;DHT22;38119;52.710;6.398;2023-03-13T06:26:21;11.90;99.90
52125;DHT22;38119;52.710;6.398;2023-03-13T06:28:48;12.00;99.90
52125;DHT22;38119;52.710;6.398;2023-03-13T06:31:14;12.00;99.90
52125;DHT22;38119;52.710;6.398;2023-03-13T06:33:40;12.00;99.90
52125;DHT22;38119;52.710;6.398;2023-03-13T06:36:06;12.00;99.90
52125;DHT22;38119;52.710;6.398;2023-03-13T06:38:32;12.00;99.90
52125;DHT22;38119;52.710;6.398;2023-03-13T06:40:57;12.00;99.90
52125;DHT22;38119;52.710;6.398;2023-03-13T06:43:23;12.00;99.90
52125;DHT22;38119;52.710;6.398;2023-03-13T06:45:49;12.10;99.90
52125;DHT22;38119;52.710;6.398;2023-03-13T06:48:14;12.10;99.90
52125;DHT22;38119;52.710;6.398;2023-03-13T06:50:41;12.00;99.90
52125;DHT22;38119;52.710;6.398;2023-03-13T06:53:07;12.00;99.90
52125;DHT22;38119;52.710;6.398;2023-03-13T06:55:37;12.10;99.90
52125;DHT22;38119;52.710;6.398;2023-03-13T06:58:03;12.10;99.90
52125;DHT22;38119;52.710;6.398;2023-03-13T07:00:28;12.20;99.90
52125;DHT22;38119;52.710;6.398;2023-03-13T07:02:54;12.20;99.90
52125;DHT22;38119;52.710;6.398;2023-03-13T07:05:19;12.20;99.90
52125;DHT22;38119;52.710;6.398;2023-03-13T07:07:45;12.20;99.90
52125;DHT22;38119;52.710;6.398;2023-03-13T07:10:11;12.20;99.90
52125;DHT22;38119;52.710;6.398;2023-03-13T07:12:36;12.30;99.90
52125;DHT22;38119;52.710;6.398;2023-03-13T07:15:03;12.30;99.90
52125;DHT22;38119;52.710;6.398;2023-03-13T07:17:29;12.30;99.90
52125;DHT22;38119;52.710;6.398;2023-03-13T07:19:54;12.40;99.90
52125;DHT22;38119;52.710;6.398;2023-03-13T07:22:20;12.40;99.90
52125;DHT22;38119;52.710;6.398;2023-03-13T07:24:46;12.40;99.90
52125;DHT22;38119;52.710;6.398;2023-03-13T07:27:11;12.40;99.90
52125;DHT22;38119;52.710;6.398;2023-03-13T07:29:38;12.40;99.90
52125;DHT22;38119;52.710;6.398;2023-03-13T07:32:04;12.40;99.90
52125;DHT22;38119;52.710;6.398;2023-03-13T07:34:29;12.40;99.90
52125;DHT22;38119;52.710;6.398;2023-03-13T07:36:55;12.50;99.90
52125;DHT22;38119;52.710;6.398;2023-03-13T07:39:20;12.50;99.90
52125;DHT22;38119;52.710;6.398;2023-03-13T07:41:46;12.50;99.90
52125;DHT22;38119;52.710;6.398;2023-03-13T07:44:11;12.50;99.90
52125;DHT22;38119;52.710;6.398;2023-03-13T07:46:37;12.60;99.90
52125;DHT22;38119;52.710;6.398;2023-03-13T07:49:02;12.60;99.90
52125;DHT22;38119;52.710;6.398;2023-03-13T07:51:28;12.60;99.90
52125;DHT22;38119;52.710;6.398;2023-03-13T07:53:54;12.60;99.90
52125;DHT22;38119;52.710;6.398;2023-03-13T07:56:21;12.60;99.90
52125;DHT22;38119;52.710;6.398;2023-03-13T07:58:47;12.60;99.90
52125;DHT22;38119;52.710;6.398;2023-03-13T08:01:25;12.60;99.90
52125;DHT22;38119;52.710;6.398;2023-03-13T08:03:51;12.60;99.90
52125;DHT22;38119;52.710;6.398;2023-03-13T08:06:23;12.60;99.90
52125;DHT22;38119;52.710;6.398;2023-03-13T08:08:50;12.60;99.90
52125;DHT22;38119;52.710;6.398;2023-03-13T08:11:21;12.50;99.90
52125;DHT22;38119;52.710;6.398;2023-03-13T08:13:49;12.50;99.90
52125;DHT22;38119;52.710;6.398;2023-03-13T08:16:20;12.50;99.90
52125;DHT22;38119;52.710;6.398;2023-03-13T08:18:47;12.40;99.90
52125;DHT22;38119;52.710;6.398;2023-03-13T08:21:15;12.40;99.90
52125;DHT22;38119;52.710;6.398;2023-03-13T08:23:41;12.40;99.90
52125;DHT22;38119;52.710;6.398;2023-03-13T08:26:25;12.40;99.90
52125;DHT22;38119;52.710;6.398;2023-03-13T08:28:56;12.50;99.90
52125;DHT22;38119;52.710;6.398;2023-03-13T08:31:24;12.50;99.90
52125;DHT22;38119;52.710;6.398;2023-03-13T08:33:50;12.50;99.90
52125;DHT22;38119;52.710;6.398;2023-03-13T08:36:21;12.50;99.90
52125;DHT22;38119;52.710;6.398;2023-03-13T08:38:49;12.50;99.90
52125;DHT22;38119;52.710;6.398;2023-03-13T08:41:17;12.50;99.90
52125;DHT22;38119;52.710;6.398;2023-03-13T08:43:44;12.50;99.90
52125;DHT22;38119;52.710;6.398;2023-03-13T08:46:10;12.60;99.90
52125;DHT22;38119;52.710;6.398;2023-03-13T08:48:35;12.60;99.90
52125;DHT22;38119;52.710;6.398;2023-03-13T08:53:32;12.80;99.90
52125;DHT22;38119;52.710;6.398;2023-03-13T08:55:58;12.80;99.90
52125;DHT22;38119;52.710;6.398;2023-03-13T08:58:23;12.80;99.90
52125;DHT22;38119;52.710;6.398;2023-03-13T09:00:49;12.90;99.90
52125;DHT22;38119;52.710;6.398;2023-03-13T09:03:15;13.00;99.90
52125;DHT22;38119;52.710;6.398;2023-03-13T09:05:42;13.10;99.90
52125;DHT22;38119;52.710;6.398;2023-03-13T09:08:07;13.20;99.90
52125;DHT22;38119;52.710;6.398;2023-03-13T09:10:34;13.10;99.90
52125;DHT22;38119;52.710;6.398;2023-03-13T09:13:00;13.10;99.90
52125;DHT22;38119;52.710;6.398;2023-03-13T09:15:25;13.10;99.90
52125;DHT22;38119;52.710;6.398;2023-03-13T09:17:51;13.10;99.90
52125;DHT22;38119;52.710;6.398;2023-03-13T09:20:16;13.10;99.90
52125;DHT22;38119;52.710;6.398;2023-03-13T09:22:44;13.10;99.90
52125;DHT22;38119;52.710;6.398;2023-03-13T09:25:10;13.10;99.90
52125;DHT22;38119;52.710;6.398;2023-03-13T09:27:35;13.10;99.90
52125;DHT22;38119;52.710;6.398;2023-03-13T09:30:01;13.10;99.90
52125;DHT22;38119;52.710;6.398;2023-03-13T09:32:27;13.10;99.90
52125;DHT22;38119;52.710;6.398;2023-03-13T09:34:52;13.00;99.90
52125;DHT22;38119;52.710;6.398;2023-03-13T09:37:18;13.10;99.90
52125;DHT22;38119;52.710;6.398;2023-03-13T09:39:43;13.00;99.90
52125;DHT22;38119;52.710;6.398;2023-03-13T09:42:13;13.00;99.90
52125;DHT22;38119;52.710;6.398;2023-03-13T09:44:49;13.10;99.90
52125;DHT22;38119;52.710;6.398;2023-03-13T09:47:32;13.10;99.90
52125;DHT22;38119;52.710;6.398;2023-03-13T09:52:40;13.30;99.90
52125;DHT22;38119;52.710;6.398;2023-03-13T09:55:19;13.30;99.90
52125;DHT22;38119;52.710;6.398;2023-03-13T10:00:23;13.60;99.90
52125;DHT22;38119;52.710;6.398;2023-03-13T10:05:33;13.90;99.90
52125;DHT22;38119;52.710;6.398;2023-03-13T10:08:52;13.90;99.90
52125;DHT22;38119;52.710;6.398;2023-03-13T10:11:03;13.90;99.90
52125;DHT22;38119;52.710;6.398;2023-03-13T10:16:33;13.90;99.90
52125;DHT22;38119;52.710;6.398;2023-03-13T10:19:13;13.80;99.90
52125;DHT22;38119;52.710;6.398;2023-03-13T10:21:41;13.70;99.90
52125;DHT22;38119;52.710;6.398;2023-03-13T10:24:29;13.80;99.90
52125;DHT22;38119;52.710;6.398;2023-03-13T10:26:57;13.80;99.90
52125;DHT22;38119;52.710;6.398;2023-03-13T10:29:24;13.80;99.90
52125;DHT22;38119;52.710;6.398;2023-03-13T10:31:58;13.80;99.90
52125;DHT22;38119;52.710;6.398;2023-03-13T10:34:27;13.70;99.90
52125;DHT22;38119;52.710;6.398;2023-03-13T10:36:58;13.80;99.90
52125;DHT22;38119;52.710;6.398;2023-03-13T10:39:27;13.80;99.90
52125;DHT22;38119;52.710;6.398;2023-03-13T10:41:58;13.90;99.90
52125;DHT22;38119;52.710;6.398;2023-03-13T10:44:32;13.90;99.90
52125;DHT22;38119;52.710;6.398;2023-03-13T10:47:00;13.90;99.90
52125;DHT22;38119;52.710;6.398;2023-03-13T10:49:27;13.90;99.90
52125;DHT22;38119;52.710;6.398;2023-03-13T10:51:59;13.90;99.90
52125;DHT22;38119;52.710;6.398;2023-03-13T10:56:51;14.00;99.90
52125;DHT22;38119;52.710;6.398;2023-03-13T10:59:31;14.10;99.90
52125;DHT22;38119;52.710;6.398;2023-03-13T11:01:59;14.10;99.90
52125;DHT22;38119;52.710;6.398;2023-03-13T11:04:33;14.20;99.90
52125;DHT22;38119;52.710;6.398;2023-03-13T11:07:21;14.30;99.90
52125;DHT22;38119;52.710;6.398;2023-03-13T11:09:57;14.50;99.90
52125;DHT22;38119;52.710;6.398;2023-03-13T11:12:23;14.50;99.90
52125;DHT22;38119;52.710;6.398;2023-03-13T11:14:59;14.50;99.90
52125;DHT22;38119;52.710;6.398;2023-03-13T11:17:39;14.60;99.90
52125;DHT22;38119;52.710;6.398;2023-03-13T11:20:26;14.80;99.90
52125;DHT22;38119;52.710;6.398;2023-03-13T11:23:21;14.90;99.90
52125;DHT22;38119;52.710;6.398;2023-03-13T11:26:11;15.00;99.90
52125;DHT22;38119;52.710;6.398;2023-03-13T11:29:02;15.30;99.90
52125;DHT22;38119;52.710;6.398;2023-03-13T11:31:44;15.60;99.90
52125;DHT22;38119;52.710;6.398;2023-03-13T11:52:57;16.50;99.90
52125;DHT22;38119;52.710;6.398;2023-03-13T11:55:36;16.40;99.90
52125;DHT22;38119;52.710;6.398;2023-03-13T12:01:09;16.40;99.90
52125;DHT22;38119;52.710;6.398;2023-03-13T12:03:52;16.40;99.90
52125;DHT22;38119;52.710;6.398;2023-03-13T12:06:24;16.40;99.90
52125;DHT22;38119;52.710;6.398;2023-03-13T12:09:01;16.60;99.90
52125;DHT22;38119;52.710;6.398;2023-03-13T12:14:21;16.80;99.90
52125;DHT22;38119;52.710;6.398;2023-03-13T12:16:52;16.80;99.90
52125;DHT22;38119;52.710;6.398;2023-03-13T12:19:40;16.70;99.90
52125;DHT22;38119;52.710;6.398;2023-03-13T12:22:14;16.70;99.90
52125;DHT22;38119;52.710;6.398;2023-03-13T12:24:56;16.80;99.90
52125;DHT22;38119;52.710;6.398;2023-03-13T12:27:28;16.70;99.90
52125;DHT22;38119;52.710;6.398;2023-03-13T12:33:28;16.90;99.90
52125;DHT22;38119;52.710;6.398;2023-03-13T12:36:31;16.90;99.90
52125;DHT22;38119;52.710;6.398;2023-03-13T12:42:09;17.00;99.90
52125;DHT22;38119;52.710;6.398;2023-03-13T12:44:40;17.00;99.90
52125;DHT22;38119;52.710;6.398;2023-03-13T12:47:22;17.10;99.90
52125;DHT22;38119;52.710;6.398;2023-03-13T12:52:57;17.20;99.90
52125;DHT22;38119;52.710;6.398;2023-03-13T12:55:57;17.10;99.90
52125;DHT22;38119;52.710;6.398;2023-03-13T13:01:20;17.10;99.90
52125;DHT22;38119;52.710;6.398;2023-03-13T13:04:00;17.20;99.90
52125;DHT22;38119;52.710;6.398;2023-03-13T13:07:02;17.20;99.90
52125;DHT22;38119;52.710;6.398;2023-03-13T13:09:36;17.20;99.90
52125;DHT22;38119;52.710;6.398;2023-03-13T13:12:24;17.10;99.90
52125;DHT22;38119;52.710;6.398;2023-03-13T13:17:38;17.00;99.90
52125;DHT22;38119;52.710;6.398;2023-03-13T13:20:24;16.80;99.90
52125;DHT22;38119;52.710;6.398;2023-03-13T13:22:50;16.60;99.90
52125;DHT22;38119;52.710;6.398;2023-03-13T13:37:49;17.00;99.90
52125;DHT22;38119;52.710;6.398;2023-03-13T13:47:44;17.00;99.90
52125;DHT22;38119;52.710;6.398;2023-03-13T13:52:44;17.00;99.60
52125;DHT22;38119;52.710;6.398;2023-03-13T13:58:21;16.90;99.90
52125;DHT22;38119;52.710;6.398;2023-03-13T14:01:13;16.80;99.90
52125;DHT22;38119;52.710;6.398;2023-03-13T14:03:41;16.70;99.90
52125;DHT22;38119;52.710;6.398;2023-03-13T14:06:30;16.60;99.90
52125;DHT22;38119;52.710;6.398;2023-03-13T14:09:15;16.50;99.90
52125;DHT22;38119;52.710;6.398;2023-03-13T14:11:45;16.50;99.90
52125;DHT22;38119;52.710;6.398;2023-03-13T14:14:18;16.50;99.90
52125;DHT22;38119;52.710;6.398;2023-03-13T14:16:46;16.50;99.90
52125;DHT22;38119;52.710;6.398;2023-03-13T14:19:27;16.50;99.90
52125;DHT22;38119;52.710;6.398;2023-03-13T14:22:07;16.50;99.90
52125;DHT22;38119;52.710;6.398;2023-03-13T14:24:34;16.60;99.90
52125;DHT22;38119;52.710;6.398;2023-03-13T14:27:00;16.60;99.90
52125;DHT22;38119;52.710;6.398;2023-03-13T14:29:26;16.50;99.90
52125;DHT22;38119;52.710;6.398;2023-03-13T14:31:57;16.40;99.90
52125;DHT22;38119;52.710;6.398;2023-03-13T14:34:23;16.30;99.90
52125;DHT22;38119;52.710;6.398;2023-03-13T14:36:51;16.20;99.90
52125;DHT22;38119;52.710;6.398;2023-03-13T14:42:08;16.20;99.90
52125;DHT22;38119;52.710;6.398;2023-03-13T14:44:35;16.20;99.90
52125;DHT22;38119;52.710;6.398;2023-03-13T14:47:07;16.20;99.90
52125;DHT22;38119;52.710;6.398;2023-03-13T14:49:34;16.10;99.90
52125;DHT22;38119;52.710;6.398;2023-03-13T14:52:03;16.10;99.90
52125;DHT22;38119;52.710;6.398;2023-03-13T14:54:35;16.10;99.90
52125;DHT22;38119;52.710;6.398;2023-03-13T14:59:34;16.20;99.90
52125;DHT22;38119;52.710;6.398;2023-03-13T15:02:02;16.20;99.90
52125;DHT22;38119;52.710;6.398;2023-03-13T15:07:35;16.10;99.90
52125;DHT22;38119;52.710;6.398;2023-03-13T15:10:17;16.10;99.90
52125;DHT22;38119;52.710;6.398;2023-03-13T15:12:44;16.10;99.60
52125;DHT22;38119;52.710;6.398;2023-03-13T15:15:10;16.00;99.90
52125;DHT22;38119;52.710;6.398;2023-03-13T15:17:35;16.00;99.90
52125;DHT22;38119;52.710;6.398;2023-03-13T15:20:02;15.90;99.90
52125;DHT22;38119;52.710;6.398;2023-03-13T15:22:34;15.80;99.90
52125;DHT22;38119;52.710;6.398;2023-03-13T15:25:00;15.70;99.90
52125;DHT22;38119;52.710;6.398;2023-03-13T15:27:26;15.70;99.90
52125;DHT22;38119;52.710;6.398;2023-03-13T15:29:52;15.70;99.90
52125;DHT22;38119;52.710;6.398;2023-03-13T15:32:24;15.70;99.90
52125;DHT22;38119;52.710;6.398;2023-03-13T15:34:50;15.60;99.90
52125;DHT22;38119;52.710;6.398;2023-03-13T15:37:17;15.60;99.90
52125;DHT22;38119;52.710;6.398;2023-03-13T15:39:42;15.40;99.90
52125;DHT22;38119;52.710;6.398;2023-03-13T15:42:10;15.40;99.90
52125;DHT22;38119;52.710;6.398;2023-03-13T15:44:58;15.40;99.90
52125;DHT22;38119;52.710;6.398;2023-03-13T15:47:40;15.40;99.90
52125;DHT22;38119;52.710;6.398;2023-03-13T15:50:29;15.40;99.90
52125;DHT22;38119;52.710;6.398;2023-03-13T15:53:36;15.30;99.90
52125;DHT22;38119;52.710;6.398;2023-03-13T15:57:18;15.30;99.90
52125;DHT22;38119;52.710;6.398;2023-03-13T16:00:17;15.30;99.90
52125;DHT22;38119;52.710;6.398;2023-03-13T16:03:42;15.20;99.90
52125;DHT22;38119;52.710;6.398;2023-03-13T16:06:34;15.20;99.90
52125;DHT22;38119;52.710;6.398;2023-03-13T16:09:11;15.10;99.90
52125;DHT22;38119;52.710;6.398;2023-03-13T16:11:43;15.00;99.90
52125;DHT22;38119;52.710;6.398;2023-03-13T16:14:14;15.80;99.90
52125;DHT22;38119;52.710;6.398;2023-03-13T16:16:55;14.90;99.90
52125;DHT22;38119;52.710;6.398;2023-03-13T16:19:33;14.80;99.90
52125;DHT22;38119;52.710;6.398;2023-03-13T16:22:11;14.80;99.90
52125;DHT22;38119;52.710;6.398;2023-03-13T16:25:18;14.80;99.90
52125;DHT22;38119;52.710;6.398;2023-03-13T16:28:50;14.70;99.90
52125;DHT22;38119;52.710;6.398;2023-03-13T16:31:55;14.60;99.90
52125;DHT22;38119;52.710;6.398;2023-03-13T16:34:21;14.60;99.90
52125;DHT22;38119;52.710;6.398;2023-03-13T16:36:48;14.60;99.90
52125;DHT22;38119;52.710;6.398;2023-03-13T16:39:14;15.20;99.90
52125;DHT22;38119;52.710;6.398;2023-03-13T16:41:41;14.40;99.90
52125;DHT22;38119;52.710;6.398;2023-03-13T16:44:06;14.90;99.90
52125;DHT22;38119;52.710;6.398;2023-03-13T16:46:41;14.30;99.90
52125;DHT22;38119;52.710;6.398;2023-03-13T16:49:13;14.30;99.90
52125;DHT22;38119;52.710;6.398;2023-03-13T16:51:40;14.20;99.90
52125;DHT22;38119;52.710;6.398;2023-03-13T16:54:08;14.10;99.90
52125;DHT22;38119;52.710;6.398;2023-03-13T16:56:41;14.70;99.90
52125;DHT22;38119;52.710;6.398;2023-03-13T16:59:13;13.90;99.90
52125;DHT22;38119;52.710;6.398;2023-03-13T17:01:40;13.80;99.90
52125;DHT22;38119;52.710;6.398;2023-03-13T17:04:08;13.80;99.90
52125;DHT22;38119;52.710;6.398;2023-03-13T17:06:40;13.80;99.90
52125;DHT22;38119;52.710;6.398;2023-03-13T17:09:29;13.70;99.90
52125;DHT22;38119;52.710;6.398;2023-03-13T17:12:01;13.70;99.90
52125;DHT22;38119;52.710;6.398;2023-03-13T17:14:30;13.60;99.90
52125;DHT22;38119;52.710;6.398;2023-03-13T17:16:57;13.60;99.90
52125;DHT22;38119;52.710;6.398;2023-03-13T17:19:25;13.50;99.90
52125;DHT22;38119;52.710;6.398;2023-03-13T17:21:52;13.30;99.90
52125;DHT22;38119;52.710;6.398;2023-03-13T17:24:21;13.20;99.90
52125;DHT22;38119;52.710;6.398;2023-03-13T17:26:57;13.30;99.90
52125;DHT22;38119;52.710;6.398;2023-03-13T17:29:29;13.20;99.90
52125;DHT22;38119;52.710;6.398;2023-03-13T17:32:17;13.10;99.90
52125;DHT22;38119;52.710;6.398;2023-03-13T17:35:01;13.10;99.90
52125;DHT22;38119;52.710;6.398;2023-03-13T17:37:27;13.30;99.90
52125;DHT22;38119;52.710;6.398;2023-03-13T17:40:00;13.00;99.90